createdAt,value
2023-02-09T00:01:17.172Z,6.88
2023-02-09T00:03:44.398Z,6.60
2023-02-09T00:06:14.970Z,6.43
2023-02-09T00:08:42.245Z,7.63
2023-02-09T00:11:13.770Z,6.85
2023-02-09T00:13:40.730Z,6.75
2023-02-09T00:16:07.733Z,4.80
2023-02-09T00:18:34.916Z,6.65
2023-02-09T00:21:07.764Z,3.85
2023-02-09T00:23:37.443Z,3.10
2023-02-09T00:26:08.385Z,3.75
2023-02-09T00:28:36.110Z,3.85
2023-02-09T00:31:11.341Z,4.75
2023-02-09T00:33:38.742Z,4.32
2023-02-09T00:36:07.748Z,3.15
2023-02-09T00:38:36.109Z,3.13
2023-02-09T00:41:04.257Z,4.93
2023-02-09T00:43:31.379Z,5.20
2023-02-09T00:45:58.483Z,5.70
2023-02-09T00:48:25.518Z,5.60
2023-02-09T00:50:53.603Z,5.07
2023-02-09T00:53:21.856Z,6.35
2023-02-09T00:55:49.211Z,7.65
2023-02-09T00:58:16.362Z,6.32
2023-02-09T01:00:43.713Z,5.20
2023-02-09T01:03:11.232Z,5.38
2023-02-09T01:05:42.627Z,6.00
2023-02-09T01:08:09.847Z,5.68
2023-02-09T01:10:38.070Z,5.72
2023-02-09T01:13:05.400Z,5.03
2023-02-09T01:15:32.501Z,5.03
2023-02-09T01:18:00.377Z,5.53
2023-02-09T01:20:27.944Z,3.88
2023-02-09T01:22:55.007Z,4.53
2023-02-09T01:25:21.989Z,5.05
2023-02-09T01:27:48.849Z,6.47
2023-02-09T01:30:16.644Z,9.35
2023-02-09T01:32:43.992Z,7.22
2023-02-09T01:35:11.469Z,5.97
2023-02-09T01:37:38.932Z,3.80
2023-02-09T01:40:07.155Z,4.10
2023-02-09T01:42:34.072Z,4.43
2023-02-09T01:45:19.141Z,3.67
2023-02-09T01:47:55.798Z,3.47
2023-02-09T01:50:25.104Z,4.93
2023-02-09T01:52:53.190Z,3.90
2023-02-09T01:55:25.515Z,2.92
2023-02-09T01:58:06.954Z,4.45
2023-02-09T02:00:33.875Z,3.00
2023-02-09T02:03:04.956Z,4.45
2023-02-09T02:05:35.365Z,4.78
2023-02-09T02:08:16.849Z,6.05
2023-02-09T02:10:44.264Z,6.40
2023-02-09T02:13:11.479Z,5.90
2023-02-09T02:15:59.900Z,7.72
2023-02-09T02:18:42.897Z,8.90
2023-02-09T02:21:40.389Z,8.57
2023-02-09T02:24:34.522Z,7.43
2023-02-09T02:27:04.980Z,5.78
2023-02-09T02:30:03.300Z,4.72
2023-02-09T02:32:49.584Z,4.13
2023-02-09T02:35:28.500Z,3.88
2023-02-09T02:38:12.596Z,5.50
2023-02-09T02:41:25.094Z,7.07
2023-02-09T02:44:03.475Z,5.07
2023-02-09T02:46:49.214Z,6.15
2023-02-09T02:49:29.616Z,6.43
2023-02-09T02:52:01.965Z,3.88
2023-02-09T02:54:35.488Z,3.97
2023-02-09T02:57:06.946Z,3.85
2023-02-09T02:59:42.090Z,3.47
2023-02-09T03:02:13.689Z,5.00
2023-02-09T03:04:42.760Z,3.50
2023-02-09T03:07:10.952Z,4.30
2023-02-09T03:09:37.846Z,5.57
2023-02-09T03:12:28.080Z,4.07
2023-02-09T03:15:17.312Z,5.07
2023-02-09T03:18:12.320Z,3.97
2023-02-09T03:21:01.087Z,3.95
2023-02-09T03:23:46.606Z,3.75
2023-02-09T03:26:21.011Z,4.63
2023-02-09T03:28:51.948Z,3.35
2023-02-09T03:31:19.828Z,6.65
2023-02-09T03:33:46.843Z,5.72
2023-02-09T03:36:18.713Z,4.00
2023-02-09T03:38:46.058Z,3.97
2023-02-09T03:41:13.019Z,4.32
2023-02-09T03:43:58.457Z,3.92
2023-02-09T03:46:25.450Z,5.53
2023-02-09T03:48:52.580Z,5.22
2023-02-09T03:51:19.516Z,4.38
2023-02-09T03:53:47.320Z,5.88
2023-02-09T03:56:14.306Z,8.20
2023-02-09T03:58:41.289Z,8.73
2023-02-09T04:01:09.965Z,9.82
2023-02-09T04:03:39.884Z,9.10
2023-02-09T04:06:07.199Z,8.82
2023-02-09T04:08:34.089Z,6.35
2023-02-09T04:11:01.004Z,5.82
2023-02-09T04:13:28.163Z,4.28
2023-02-09T04:15:55.489Z,3.97
2023-02-09T04:18:22.412Z,5.28
2023-02-09T04:20:49.255Z,5.40
2023-02-09T04:23:16.507Z,6.53
2023-02-09T04:25:43.694Z,7.28
2023-02-09T04:28:10.736Z,9.82
2023-02-09T04:30:37.835Z,6.85
2023-02-09T04:33:04.788Z,6.65
2023-02-09T04:35:31.670Z,5.88
2023-02-09T04:37:58.548Z,5.70
2023-02-09T04:40:25.488Z,5.68
2023-02-09T04:42:52.495Z,5.82
2023-02-09T04:45:19.603Z,6.43
2023-02-09T04:47:46.453Z,5.72
2023-02-09T04:50:13.462Z,6.78
2023-02-09T04:52:40.340Z,6.28
2023-02-09T04:55:07.558Z,5.88
2023-02-09T04:57:52.963Z,4.95
2023-02-09T05:00:20.122Z,4.82
2023-02-09T05:02:47.064Z,4.43
2023-02-09T05:05:13.995Z,5.75
2023-02-09T05:07:40.915Z,6.47
2023-02-09T05:10:07.997Z,6.47
2023-02-09T05:12:34.865Z,6.40
2023-02-09T05:15:01.776Z,8.18
2023-02-09T05:17:28.705Z,8.93
2023-02-09T05:19:55.673Z,8.00
2023-02-09T05:22:22.590Z,7.10
2023-02-09T05:24:49.515Z,6.75
2023-02-09T05:27:16.564Z,8.63
2023-02-09T05:29:43.401Z,8.20
2023-02-09T05:32:10.423Z,12.48
2023-02-09T05:34:37.508Z,8.15
2023-02-09T05:37:04.493Z,9.15
2023-02-09T05:39:31.320Z,8.80
2023-02-09T05:42:16.612Z,8.18
2023-02-09T05:44:45.581Z,11.02
2023-02-09T05:47:13.932Z,7.57
2023-02-09T05:49:41.318Z,6.00
2023-02-09T05:52:09.505Z,5.88
2023-02-09T05:54:36.855Z,7.70
2023-02-09T05:57:04.791Z,6.57
2023-02-09T05:59:32.302Z,7.20
2023-02-09T06:01:59.841Z,6.60
2023-02-09T06:04:27.686Z,8.25
2023-02-09T06:06:55.445Z,7.03
2023-02-09T06:09:22.507Z,7.10
2023-02-09T06:11:49.601Z,7.30
2023-02-09T06:14:17.850Z,8.75
2023-02-09T06:16:45.293Z,7.80
2023-02-09T06:19:17.552Z,11.45
2023-02-09T06:21:45.016Z,11.38
2023-02-09T06:24:13.265Z,11.68
2023-02-09T06:26:41.184Z,12.20
2023-02-09T06:29:09.397Z,13.20
2023-02-09T06:31:36.753Z,14.40
2023-02-09T06:34:06.000Z,12.05
2023-02-09T06:36:33.117Z,12.23
2023-02-09T06:39:00.813Z,10.00
2023-02-09T06:41:27.879Z,10.98
2023-02-09T06:43:54.796Z,6.78
2023-02-09T06:46:21.839Z,7.35
2023-02-09T06:48:49.158Z,9.35
2023-02-09T06:51:17.529Z,7.72
2023-02-09T06:53:44.866Z,6.75
2023-02-09T06:56:13.857Z,9.82
2023-02-09T06:58:41.957Z,6.65
2023-02-09T07:01:12.215Z,7.30
2023-02-09T07:03:39.350Z,6.00
2023-02-09T07:06:11.952Z,6.80
2023-02-09T07:08:39.691Z,8.05
2023-02-09T07:11:10.563Z,8.20
2023-02-09T07:13:37.868Z,5.53
2023-02-09T07:16:07.010Z,4.85
2023-02-09T07:18:34.492Z,6.07
2023-02-09T07:21:08.066Z,5.60
2023-02-09T07:23:35.586Z,9.27
2023-02-09T07:26:04.261Z,5.90
2023-02-09T07:28:31.601Z,3.72
2023-02-09T07:31:07.428Z,4.78
2023-02-09T07:33:35.111Z,4.15
2023-02-09T07:36:06.983Z,4.30
2023-02-09T07:38:34.435Z,6.00
2023-02-09T07:41:03.283Z,5.07
2023-02-09T07:43:30.870Z,6.80
2023-02-09T07:46:05.477Z,5.53
2023-02-09T07:48:33.664Z,3.35
2023-02-09T07:51:01.175Z,5.78
2023-02-09T07:53:28.932Z,3.97
2023-02-09T07:55:56.245Z,6.13
2023-02-09T07:58:23.786Z,7.22
2023-02-09T08:00:51.910Z,5.20
2023-02-09T08:03:21.246Z,7.05
2023-02-09T08:06:03.269Z,3.10
2023-02-09T08:08:30.334Z,4.22
2023-02-09T08:10:59.712Z,3.35
2023-02-09T08:13:29.209Z,4.78
2023-02-09T08:16:00.495Z,4.47
2023-02-09T08:18:32.798Z,3.35
2023-02-09T08:21:05.324Z,2.95
2023-02-09T08:27:47.848Z,4.13
2023-02-09T08:37:31.561Z,4.72
2023-02-09T08:39:58.590Z,3.75
2023-02-09T08:42:25.942Z,4.35
2023-02-09T08:44:52.788Z,4.32
2023-02-09T08:47:19.639Z,4.68
2023-02-09T08:49:46.436Z,5.10
2023-02-09T08:52:13.294Z,3.60
2023-02-09T08:54:40.050Z,4.03
2023-02-09T08:57:06.824Z,3.72
2023-02-09T08:59:34.271Z,2.78
2023-02-09T09:02:01.081Z,3.13
2023-02-09T09:04:29.525Z,3.65
2023-02-09T09:06:56.762Z,3.28
2023-02-09T09:09:23.716Z,4.47
2023-02-09T09:11:50.564Z,4.00
2023-02-09T09:14:17.373Z,2.75
2023-02-09T09:16:44.259Z,4.35
2023-02-09T09:19:11.104Z,3.90
2023-02-09T09:21:37.888Z,3.80
2023-02-09T09:24:04.977Z,6.35
2023-02-09T09:26:33.743Z,3.55
2023-02-09T09:29:01.170Z,3.83
2023-02-09T09:31:28.344Z,4.47
2023-02-09T09:33:55.746Z,4.68
2023-02-09T09:36:22.718Z,3.85
2023-02-09T09:38:50.210Z,3.20
2023-02-09T09:41:28.980Z,5.78
2023-02-09T09:43:56.392Z,6.95
2023-02-09T09:46:36.996Z,6.05
2023-02-09T09:49:05.225Z,7.07
2023-02-09T09:51:44.795Z,8.10
2023-02-09T09:54:19.978Z,7.32
2023-02-09T09:56:47.599Z,7.53
2023-02-09T09:59:28.767Z,6.40
2023-02-09T10:01:57.603Z,6.28
2023-02-09T10:04:24.544Z,8.45
2023-02-09T10:07:19.611Z,11.18
2023-02-09T10:09:56.859Z,10.20
2023-02-09T10:12:37.891Z,14.05
2023-02-09T10:15:40.375Z,15.68
2023-02-09T10:18:14.756Z,13.73
2023-02-09T10:20:52.713Z,12.40
2023-02-09T10:23:21.653Z,20.02
2023-02-09T10:25:49.100Z,15.48
2023-02-09T10:28:29.136Z,17.13
2023-02-09T10:31:02.743Z,18.95
2023-02-09T10:33:40.633Z,20.10
2023-02-09T10:36:26.975Z,18.77
2023-02-09T10:39:12.701Z,14.98
2023-02-09T10:41:42.098Z,14.40
2023-02-09T10:44:16.980Z,17.58
2023-02-09T10:46:43.896Z,20.02
2023-02-09T10:49:27.330Z,21.98
2023-02-09T10:52:06.036Z,19.35
2023-02-09T10:54:32.986Z,19.60
2023-02-09T10:57:01.905Z,19.63
2023-02-09T10:59:30.367Z,15.57
2023-02-09T11:02:02.235Z,16.63
2023-02-09T11:04:40.508Z,13.20
2023-02-09T11:07:17.525Z,10.80
2023-02-09T11:09:50.545Z,10.80
2023-02-09T11:12:20.507Z,11.77
2023-02-09T11:14:47.309Z,11.27
2023-02-09T11:17:27.171Z,10.75
2023-02-09T11:20:25.017Z,11.63
2023-02-09T11:23:15.208Z,11.00
2023-02-09T11:26:00.434Z,15.25
2023-02-09T11:28:35.770Z,19.88
2023-02-09T11:31:17.211Z,18.67
2023-02-09T11:33:49.724Z,20.60
2023-02-09T11:36:31.589Z,22.25
2023-02-09T11:39:01.840Z,17.45
2023-02-09T11:41:57.308Z,13.80
2023-02-09T11:44:33.240Z,14.50
2023-02-09T11:47:07.671Z,11.55
2023-02-09T11:49:45.298Z,11.80
2023-02-09T11:52:23.768Z,12.05
2023-02-09T11:54:56.869Z,14.75
2023-02-09T11:57:39.412Z,11.70
2023-02-09T12:00:11.468Z,12.25
2023-02-09T12:02:58.998Z,11.05
2023-02-09T12:05:27.099Z,13.65
2023-02-09T12:08:29.005Z,10.95
2023-02-09T12:11:30.837Z,12.57
2023-02-09T12:14:15.931Z,13.25
2023-02-09T12:16:48.769Z,16.10
2023-02-09T12:19:44.435Z,13.20
2023-02-09T12:22:33.327Z,17.23
2023-02-09T12:25:17.454Z,18.02
2023-02-09T12:28:34.116Z,19.95
2023-02-09T12:31:12.402Z,16.27
2023-02-09T12:34:00.207Z,12.48
2023-02-09T12:36:31.824Z,12.52
2023-02-09T12:39:07.379Z,11.57
2023-02-09T12:41:34.203Z,9.02
2023-02-09T12:44:10.337Z,10.20
2023-02-09T12:46:53.226Z,11.02
2023-02-09T12:49:27.535Z,10.52
2023-02-09T12:52:15.902Z,13.10
2023-02-09T12:54:56.713Z,11.77
2023-02-09T12:57:23.942Z,11.63
2023-02-09T12:59:53.661Z,13.32
2023-02-09T13:02:39.723Z,9.55
2023-02-09T13:05:33.755Z,9.85
2023-02-09T13:08:16.504Z,8.43
2023-02-09T13:11:27.919Z,8.57
2023-02-09T13:14:07.427Z,8.20
2023-02-09T13:16:57.529Z,10.98
2023-02-09T13:19:49.277Z,12.00
2023-02-09T13:22:53.281Z,9.82
2023-02-09T13:25:23.139Z,9.00
2023-02-09T13:27:50.358Z,11.20
2023-02-09T13:30:32.432Z,11.25
2023-02-09T13:33:37.424Z,16.92
2023-02-09T13:36:16.208Z,16.88
2023-02-09T13:38:50.139Z,13.85
2023-02-09T13:41:39.318Z,11.15
2023-02-09T13:44:20.993Z,13.98
2023-02-09T13:47:01.904Z,11.45
2023-02-09T13:49:29.975Z,11.85
2023-02-09T13:52:23.582Z,10.02
2023-02-09T13:54:50.676Z,8.68
2023-02-09T13:57:26.586Z,8.65
2023-02-09T13:59:53.765Z,9.35
2023-02-09T14:02:26.552Z,6.03
2023-02-09T14:04:58.944Z,6.10
2023-02-09T14:07:32.252Z,7.65
2023-02-09T14:10:16.993Z,9.25
2023-02-09T14:13:00.785Z,7.65
2023-02-09T14:15:57.655Z,7.22
2023-02-09T14:18:33.616Z,7.03
2023-02-09T14:21:13.962Z,6.93
2023-02-09T14:23:49.942Z,5.25
2023-02-09T14:26:24.726Z,6.90
2023-02-09T14:29:03.782Z,8.57
2023-02-09T14:31:34.212Z,10.23
2023-02-09T14:34:01.837Z,11.43
2023-02-09T14:36:34.511Z,8.65
2023-02-09T14:39:12.174Z,12.20
2023-02-09T14:41:39.774Z,9.50
2023-02-09T14:44:06.703Z,10.73
2023-02-09T14:46:51.854Z,8.25
2023-02-09T14:49:19.464Z,9.68
2023-02-09T14:51:47.736Z,6.63
2023-02-09T14:54:27.315Z,8.80
2023-02-09T14:56:58.000Z,7.97
2023-02-09T14:59:25.681Z,9.43
2023-02-09T15:01:54.466Z,6.47
2023-02-09T15:04:21.676Z,8.23
2023-02-09T15:06:58.908Z,8.35
2023-02-09T15:09:44.026Z,8.70
2023-02-09T15:12:21.903Z,7.28
2023-02-09T15:14:49.870Z,5.95
2023-02-09T15:17:23.768Z,7.03
2023-02-09T15:19:50.722Z,7.25
2023-02-09T15:22:18.842Z,6.05
2023-02-09T15:24:47.753Z,6.32
2023-02-09T15:27:29.795Z,5.80
2023-02-09T15:29:59.498Z,5.78
2023-02-09T15:32:29.061Z,4.97
2023-02-09T15:34:55.994Z,7.32
2023-02-09T15:37:26.810Z,12.18
2023-02-09T15:40:01.998Z,13.65
2023-02-09T15:42:47.748Z,13.25
2023-02-09T15:45:33.997Z,10.32
2023-02-09T15:48:01.045Z,11.10
2023-02-09T15:50:29.731Z,8.95
2023-02-09T15:52:58.611Z,9.23
2023-02-09T15:55:26.979Z,9.23
2023-02-09T15:57:55.003Z,7.45
2023-02-09T16:00:31.591Z,6.90
2023-02-09T16:03:01.932Z,7.07
2023-02-09T16:05:30.077Z,8.73
2023-02-09T16:07:58.549Z,6.32
2023-02-09T16:10:29.068Z,7.10
2023-02-09T16:12:57.290Z,7.18
2023-02-09T16:15:26.501Z,14.43
2023-02-09T16:17:53.356Z,9.73
2023-02-09T16:20:20.733Z,14.38
2023-02-09T16:22:50.205Z,11.13
2023-02-09T16:25:25.696Z,24.35
2023-02-09T16:27:54.294Z,27.10
2023-02-09T16:30:29.102Z,26.35
2023-02-09T16:32:56.451Z,28.38
2023-02-09T16:35:25.816Z,22.77
2023-02-09T16:37:53.841Z,17.75
2023-02-09T16:40:30.585Z,12.95
2023-02-09T16:42:59.460Z,13.18
2023-02-09T16:45:30.514Z,13.10
2023-02-09T16:47:59.622Z,15.57
2023-02-09T16:50:39.966Z,15.13
2023-02-09T16:53:17.648Z,15.15
2023-02-09T16:55:48.921Z,15.70
2023-02-09T16:58:17.001Z,13.32
2023-02-09T17:00:45.162Z,9.88
2023-02-09T17:03:17.257Z,7.88
2023-02-09T17:05:54.031Z,9.38
2023-02-09T17:08:26.998Z,8.02
2023-02-09T17:10:57.658Z,6.85
2023-02-09T17:13:24.603Z,7.20
2023-02-09T17:15:54.791Z,6.35
2023-02-09T17:18:37.224Z,5.88
2023-02-09T17:21:07.787Z,7.43
2023-02-09T17:23:37.253Z,4.72
2023-02-09T17:26:04.311Z,5.90
2023-02-09T17:28:32.077Z,3.88
2023-02-09T17:31:04.858Z,5.93
2023-02-09T17:33:34.691Z,3.33
2023-02-09T17:38:49.718Z,5.03
2023-02-09T17:41:23.051Z,5.22
2023-02-09T17:43:52.466Z,7.22
2023-02-09T17:46:20.302Z,7.00
2023-02-09T17:48:48.164Z,5.40
2023-02-09T17:51:23.247Z,6.40
2023-02-09T17:53:50.265Z,5.00
2023-02-09T17:56:17.384Z,4.53
2023-02-09T17:58:44.698Z,4.75
2023-02-09T18:01:27.146Z,5.97
2023-02-09T18:03:59.832Z,4.50
2023-02-09T18:06:40.037Z,4.75
2023-02-09T18:09:15.002Z,9.75
2023-02-09T18:12:07.890Z,9.60
2023-02-09T18:14:34.959Z,11.13
2023-02-09T18:17:02.887Z,15.07
2023-02-09T18:19:30.126Z,17.70
2023-02-09T18:22:00.026Z,15.32
2023-02-09T18:24:29.793Z,13.95
2023-02-09T18:26:57.073Z,15.90
2023-02-09T18:29:29.565Z,16.65
2023-02-09T18:31:58.216Z,14.68
2023-02-09T18:34:26.115Z,12.27
2023-02-09T18:36:53.039Z,13.55
2023-02-09T18:39:20.034Z,16.05
2023-02-09T18:41:54.087Z,14.23
2023-02-09T18:44:24.527Z,14.45
2023-02-09T18:46:51.865Z,12.77
2023-02-09T18:49:18.800Z,12.23
2023-02-09T18:51:45.749Z,12.55
2023-02-09T18:54:12.776Z,12.27
2023-02-09T18:56:39.830Z,11.55
2023-02-09T18:59:08.405Z,9.20
2023-02-09T19:01:36.817Z,9.10
2023-02-09T19:04:05.033Z,6.20
2023-02-09T19:06:33.437Z,7.07
2023-02-09T19:09:00.406Z,8.57
2023-02-09T19:11:27.429Z,11.68
2023-02-09T19:14:12.703Z,17.10
2023-02-09T19:16:41.238Z,13.57
2023-02-09T19:19:09.620Z,12.02
2023-02-09T19:21:36.534Z,12.88
2023-02-09T19:24:03.895Z,10.23
2023-02-09T19:26:30.963Z,8.27
2023-02-09T19:28:57.894Z,10.18
2023-02-09T19:31:25.109Z,11.25
2023-02-09T19:33:56.368Z,9.50
2023-02-09T19:36:24.434Z,16.88
2023-02-09T19:38:51.732Z,17.10
2023-02-09T19:41:22.033Z,11.82
2023-02-09T19:43:49.410Z,13.32
2023-02-09T19:46:16.342Z,10.93
2023-02-09T19:48:43.323Z,10.27
2023-02-09T19:51:10.377Z,10.40
2023-02-09T19:53:37.316Z,7.43
2023-02-09T19:56:04.645Z,8.10
2023-02-09T19:58:31.606Z,6.20
2023-02-09T20:00:58.810Z,6.82
2023-02-09T20:03:25.759Z,4.68
2023-02-09T20:05:52.570Z,7.25
2023-02-09T20:08:20.457Z,6.95
2023-02-09T20:10:47.977Z,7.03
2023-02-09T20:13:15.765Z,6.10
2023-02-09T20:15:46.282Z,7.07
2023-02-09T20:18:15.791Z,6.18
2023-02-09T20:20:44.614Z,5.63
2023-02-09T20:23:12.150Z,6.18
2023-02-09T20:25:43.390Z,5.30
2023-02-09T20:28:13.658Z,3.78
2023-02-09T20:30:42.392Z,4.72
2023-02-09T20:33:10.366Z,4.30
2023-02-09T20:35:45.216Z,5.75
2023-02-09T20:38:14.071Z,7.03
2023-02-09T20:40:42.798Z,5.88
2023-02-09T20:43:30.798Z,7.07
2023-02-09T20:46:16.784Z,6.85
2023-02-09T20:48:44.509Z,5.90
2023-02-09T20:51:11.565Z,8.82
2023-02-09T20:53:38.509Z,7.85
2023-02-09T20:56:05.997Z,6.93
2023-02-09T20:58:32.926Z,5.85
2023-02-09T21:01:00.019Z,4.35
2023-02-09T21:03:27.131Z,4.22
2023-02-09T21:05:53.990Z,5.03
2023-02-09T21:08:22.236Z,6.38
2023-02-09T21:10:57.415Z,6.75
2023-02-09T21:13:24.872Z,5.35
2023-02-09T21:15:51.945Z,3.95
2023-02-09T21:18:19.080Z,4.25
2023-02-09T21:20:46.073Z,5.10
2023-02-09T21:23:13.084Z,4.00
2023-02-09T21:25:40.060Z,3.90
2023-02-09T21:28:07.055Z,4.90
2023-02-09T21:30:33.889Z,5.90
2023-02-09T21:33:01.592Z,10.98
2023-02-09T21:35:28.660Z,13.15
2023-02-09T21:37:55.505Z,11.52
2023-02-09T21:40:23.240Z,10.32
2023-02-09T21:42:50.849Z,8.48
2023-02-09T21:45:17.762Z,6.35
2023-02-09T21:47:44.575Z,6.88
2023-02-09T21:50:12.969Z,5.18
2023-02-09T21:52:39.897Z,5.95
2023-02-09T21:55:08.401Z,4.30
2023-02-09T21:57:36.198Z,6.82
2023-02-09T22:00:05.466Z,6.68
2023-02-09T22:02:32.650Z,6.93
2023-02-09T22:04:59.529Z,5.63
2023-02-09T22:07:26.595Z,4.88
2023-02-09T22:09:53.742Z,5.25
2023-02-09T22:12:20.739Z,5.45
2023-02-09T22:14:47.529Z,4.90
2023-02-09T22:17:14.368Z,5.63
2023-02-09T22:19:41.188Z,5.82
2023-02-09T22:22:08.064Z,6.47
2023-02-09T22:24:35.039Z,5.63
2023-02-09T22:27:03.549Z,5.00
2023-02-09T22:29:30.843Z,4.68
2023-02-09T22:31:58.257Z,4.10
2023-02-09T22:34:25.495Z,4.07
2023-02-09T22:36:53.825Z,5.07
2023-02-09T22:39:21.546Z,6.00
2023-02-09T22:41:48.523Z,6.00
2023-02-09T22:44:16.923Z,7.05
2023-02-09T22:46:44.825Z,7.63
2023-02-09T22:49:20.160Z,5.65
2023-02-09T22:51:48.559Z,5.90
2023-02-09T22:54:16.990Z,5.47
2023-02-09T22:56:44.163Z,6.07
2023-02-09T22:59:12.764Z,6.03
2023-02-09T23:01:39.727Z,5.93
2023-02-09T23:04:06.868Z,6.43
2023-02-09T23:06:33.816Z,5.85
2023-02-09T23:09:03.941Z,6.90
2023-02-09T23:11:31.817Z,6.57
2023-02-09T23:14:14.781Z,6.60
2023-02-09T23:16:43.851Z,7.10
2023-02-09T23:19:19.546Z,10.27
2023-02-09T23:21:48.840Z,15.98
2023-02-09T23:24:18.413Z,18.52
2023-02-09T23:26:45.211Z,18.05
2023-02-09T23:29:14.790Z,16.45
2023-02-09T23:31:42.063Z,11.40
2023-02-09T23:34:15.273Z,10.82
2023-02-09T23:36:42.077Z,10.18
2023-02-09T23:39:09.015Z,12.90
2023-02-09T23:41:35.922Z,11.80
2023-02-09T23:44:03.069Z,13.85
2023-02-09T23:46:30.030Z,16.17
2023-02-09T23:48:57.969Z,16.38
2023-02-09T23:51:31.051Z,16.02
2023-02-09T23:54:00.061Z,14.65
2023-02-09T23:56:28.007Z,8.55
2023-02-09T23:58:55.161Z,7.88
